Time;durP1;ratioP1;P1;durP2;ratioP2;P2;SDS_P1;SDS_P2;PMS_P1;PMS_P2;Temp;Humidity;BMP_temperature;BMP_pressure;BME280_temperature;BME280_humidity;BME280_pressure;Samples;Min_cycle;Max_cycle;Signal;HPM_P1;HPM_P2
2023/07/01 00:01:23;;;;;;;5.05;4.00;;;;;;;18.37;100.00;98067.84;5139097;28;20513;-56
2023/07/01 00:03:49;;;;;;;7.03;4.80;;;;;;;18.36;100.00;98080.94;5139388;28;20249;-55
2023/07/01 00:06:15;;;;;;;21.55;6.57;;;;;;;18.26;100.00;98107.00;5138953;28;20104;-60
2023/07/01 00:08:41;;;;;;;7.20;4.80;;;;;;;18.27;100.00;98114.91;5139407;28;20157;-55
2023/07/01 00:11:08;;;;;;;10.23;5.05;;;;;;;18.24;100.00;98148.28;5139145;27;20163;-54
2023/07/01 00:13:34;;;;;;;12.68;6.68;;;;;;;18.26;100.00;98138.31;5139332;28;20053;-55
2023/07/01 00:16:00;;;;;;;10.60;5.68;;;;;;;18.13;100.00;98156.94;5138856;28;20146;-55
2023/07/01 00:18:26;;;;;;;10.23;6.38;;;;;;;18.17;100.00;98177.03;5138780;27;20499;-59
2023/07/01 00:20:54;;;;;;;35.90;15.68;;;;;;;18.14;100.00;98185.44;5138783;28;20051;-51
2023/07/01 00:23:20;;;;;;;34.55;10.98;;;;;;;18.11;100.00;98206.50;5139206;28;20051;-56
2023/07/01 00:25:46;;;;;;;14.65;6.45;;;;;;;18.15;100.00;98190.53;5139067;28;20459;-58
2023/07/01 00:28:13;;;;;;;23.50;6.88;;;;;;;18.16;100.00;98185.75;5138840;28;20065;-58
2023/07/01 00:30:39;;;;;;;6.00;4.70;;;;;;;18.13;100.00;98200.50;5138957;28;20051;-59
2023/07/01 00:33:05;;;;;;;11.07;5.00;;;;;;;18.05;100.00;98213.81;5138759;28;20116;-56
2023/07/01 00:35:31;;;;;;;29.83;9.13;;;;;;;18.03;100.00;98233.66;5138885;27;20050;-54
2023/07/01 00:37:57;;;;;;;11.73;4.25;;;;;;;17.79;100.00;98273.91;5138573;28;20051;-53
2023/07/01 00:40:23;;;;;;;10.18;7.05;;;;;;;17.94;100.00;98299.28;5138837;28;20054;-53
2023/07/01 00:42:49;;;;;;;13.35;5.88;;;;;;;18.05;100.00;98280.38;5138475;28;20051;-57
2023/07/01 00:45:16;;;;;;;5.43;4.65;;;;;;;17.99;100.00;98307.84;5138874;28;20047;-59
2023/07/01 00:47:42;;;;;;;8.95;4.35;;;;;;;17.92;100.00;98291.38;5138273;28;20051;-59
2023/07/01 00:50:11;;;;;;;9.05;4.60;;;;;;;18.03;100.00;98341.06;5138882;28;20371;-55
2023/07/01 00:52:38;;;;;;;22.60;7.75;;;;;;;18.07;100.00;98312.00;5138180;28;20420;-53
2023/07/01 00:55:04;;;;;;;11.68;6.85;;;;;;;18.08;100.00;98296.91;5138288;28;20323;-52
2023/07/01 00:57:31;;;;;;;22.55;9.05;;;;;;;18.04;100.00;98287.13;5138502;28;20138;-60
2023/07/01 00:59:57;;;;;;;9.70;4.88;;;;;;;18.04;100.00;98292.69;5137798;27;20054;-59
2023/07/01 01:02:30;;;;;;;9.38;5.10;;;;;;;17.94;100.00;98294.50;5138294;28;20050;-53
2023/07/01 01:05:01;;;;;;;18.38;7.07;;;;;;;17.93;100.00;98333.78;5138236;28;20394;-53
2023/07/01 01:07:33;;;;;;;18.30;10.45;;;;;;;17.96;100.00;98311.50;5138319;28;20112;-53
2023/07/01 01:10:05;;;;;;;12.52;6.78;;;;;;;17.97;100.00;98309.50;5138101;28;20073;-57
2023/07/01 01:12:31;;;;;;;8.32;4.90;;;;;;;17.88;100.00;98313.66;5138395;27;20131;-57
2023/07/01 01:14:58;;;;;;;23.65;7.65;;;;;;;17.92;100.00;98334.97;5137909;28;20130;-57
2023/07/01 01:17:27;;;;;;;18.05;7.70;;;;;;;17.94;100.00;98321.47;5138215;27;20141;-60
2023/07/01 01:19:56;;;;;;;9.52;4.88;;;;;;;17.91;100.00;98323.13;5137873;28;20047;-55
2023/07/01 01:22:26;;;;;;;6.38;5.03;;;;;;;17.94;100.00;98313.16;5138068;28;20310;-58
2023/07/01 01:24:55;;;;;;;30.13;9.23;;;;;;;17.97;100.00;98315.06;5138141;28;20178;-59
2023/07/01 01:27:24;;;;;;;37.33;9.75;;;;;;;17.96;100.00;98319.03;5137806;28;20147;-55
2023/07/01 01:29:51;;;;;;;27.23;13.25;;;;;;;17.96;100.00;98319.03;5138085;28;20053;-60
2023/07/01 01:32:18;;;;;;;21.45;7.55;;;;;;;17.97;100.00;98306.72;5137793;28;20146;-58
2023/07/01 01:34:44;;;;;;;15.57;6.00;;;;;;;17.99;100.00;98293.97;5138128;28;20051;-60
2023/07/01 01:37:14;;;;;;;8.18;5.43;;;;;;;17.95;100.00;98282.19;5137593;28;20127;-60
2023/07/01 01:39:44;;;;;;;15.98;9.20;;;;;;;17.88;100.00;98293.47;5138049;28;20146;-55
2023/07/01 01:42:17;;;;;;;25.25;7.43;;;;;;;17.88;100.00;98326.75;5137837;28;20061;-53
2023/07/01 01:44:47;;;;;;;23.50;8.48;;;;;;;17.70;100.00;98334.72;5137526;28;20137;-55
2023/07/01 01:47:16;;;;;;;19.30;10.65;;;;;;;17.81;100.00;98336.03;5137752;28;20055;-60
2023/07/01 01:49:43;;;;;;;6.25;4.72;;;;;;;17.89;100.00;98336.63;5137564;28;20146;-54
2023/07/01 01:52:12;;;;;;;6.65;4.35;;;;;;;17.82;100.00;98325.72;5137765;28;20312;-56
2023/07/01 01:54:39;;;;;;;6.53;4.43;;;;;;;17.82;100.00;98328.47;5137427;28;20183;-52
2023/07/01 01:57:06;;;;;;;8.32;5.13;;;;;;;17.86;100.00;98321.66;5137734;28;20046;-58
2023/07/01 01:59:32;;;;;;;9.85;5.03;;;;;;;17.86;100.00;98329.97;5137354;28;20047;-54
2023/07/01 02:01:58;;;;;;;8.75;4.90;;;;;;;17.89;100.00;98336.63;5137726;27;20188;-52
2023/07/01 02:04:24;;;;;;;6.80;4.78;;;;;;;17.53;100.00;98367.19;5137260;28;20409;-56
2023/07/01 02:06:50;;;;;;;4.78;4.38;;;;;;;17.94;100.00;98366.63;5137091;28;20051;-54
2023/07/01 02:09:16;;;;;;;14.05;9.27;;;;;;;18.04;100.00;98348.16;5137423;27;20112;-57
2023/07/01 02:11:43;;;;;;;27.35;9.77;;;;;;;18.10;100.00;98332.53;5137364;27;20417;-58
2023/07/01 02:14:09;;;;;;;15.95;7.10;;;;;;;18.04;100.00;98325.97;5140861;28;20111;-60
2023/07/01 02:16:36;;;;;;;15.82;6.38;;;;;;;18.14;100.00;98330.44;5140995;28;20145;-59
2023/07/01 02:19:04;;;;;;;7.13;6.43;;;;;;;18.11;100.00;98304.34;5141150;28;20083;-58
2023/07/01 02:21:31;;;;;;;18.45;7.28;;;;;;;18.21;100.00;98313.63;5140688;28;20047;-56
2023/07/01 02:23:57;;;;;;;19.98;8.88;;;;;;;18.32;100.00;98289.13;5140910;27;20137;-57
2023/07/01 02:26:24;;;;;;;7.72;4.85;;;;;;;18.65;100.00;98227.94;5140740;28;20047;-55
2023/07/01 02:28:50;;;;;;;6.97;4.93;;;;;;;18.97;100.00;98131.81;5140957;28;20119;-59
2023/07/01 02:31:18;;;;;;;6.55;4.93;;;;;;;19.30;100.00;98007.25;5140631;28;20047;-56
2023/07/01 02:33:44;;;;;;;13.50;5.50;;;;;;;19.60;100.00;97838.19;5140996;28;20051;-61
2023/07/01 02:36:09;;;;;;;21.20;7.50;;;;;;;19.85;100.00;97701.69;5140369;27;20111;-56
2023/07/01 02:38:36;;;;;;;5.47;4.63;;;;;;;20.04;100.00;97524.47;5140371;28;20055;-54
2023/07/01 02:41:02;;;;;;;16.75;5.75;;;;;;;20.04;100.00;97452.13;5140482;27;20061;-54
2023/07/01 02:43:28;;;;;;;27.75;9.65;;;;;;;20.26;100.00;97389.88;5140289;27;20413;-55
2023/07/01 02:45:54;;;;;;;8.02;5.60;;;;;;;20.40;100.00;97311.28;5140722;28;20108;-57
2023/07/01 02:48:20;;;;;;;12.55;6.53;;;;;;;20.58;100.00;97224.84;5140330;28;20404;-58
2023/07/01 02:50:46;;;;;;;15.93;6.03;;;;;;;20.70;100.00;97188.84;5140689;27;20101;-60
2023/07/01 02:53:12;;;;;;;6.30;4.45;;;;;;;20.77;100.00;97141.13;5140217;28;20137;-58
2023/07/01 02:55:38;;;;;;;18.67;7.43;;;;;;;20.72;100.00;97111.16;5140629;28;20058;-59
2023/07/01 02:58:04;;;;;;;8.85;5.38;;;;;;;20.26;100.00;97209.81;5140148;28;20091;-60
2023/07/01 03:00:30;;;;;;;9.15;5.25;;;;;;;20.05;100.00;97305.47;5140628;28;20127;-54
2023/07/01 03:03:05;;;;;;;17.35;7.00;;;;;;;19.81;100.00;97406.34;5140053;28;20055;-51
2023/07/01 03:05:32;;;;;;;22.52;7.38;;;;;;;19.63;100.00;97498.13;5140267;27;20362;-59
2023/07/01 03:07:58;;;;;;;10.10;5.53;;;;;;;19.44;100.00;97628.00;5140132;28;20169;-52
2023/07/01 03:10:24;;;;;;;8.95;4.32;;;;;;;19.27;100.00;97703.28;5140167;28;20051;-57
2023/07/01 03:12:50;;;;;;;16.15;5.80;;;;;;;19.26;100.00;97718.41;5140291;28;20531;-58
2023/07/01 03:15:16;;;;;;;8.32;4.60;;;;;;;19.15;100.00;97784.72;5140035;28;20138;-57
2023/07/01 03:17:42;;;;;;;10.40;4.75;;;;;;;19.08;100.00;97873.13;5140210;27;20485;-59
2023/07/01 03:20:20;;;;;;;15.02;5.25;;;;;;;19.04;100.00;97923.25;5139877;28;20631;-51
2023/07/01 03:22:46;;;;;;;16.00;6.93;;;;;;;18.95;100.00;97943.38;5139770;27;20134;-55
2023/07/01 03:25:12;;;;;;;9.60;4.80;;;;;;;18.88;100.00;97996.41;5139729;27;20054;-59
2023/07/01 03:27:38;;;;;;;12.82;4.82;;;;;;;19.04;100.00;97965.69;5140030;27;20409;-53
2023/07/01 03:30:11;;;;;;;9.07;5.05;;;;;;;19.33;100.00;97891.66;5139521;27;20058;-53
2023/07/01 03:32:36;;;;;;;15.73;5.72;;;;;;;19.40;100.00;97838.56;5139804;28;20108;-58
2023/07/01 03:35:03;;;;;;;11.65;5.63;;;;;;;19.42;100.00;97800.72;5139606;28;20443;-59
2023/07/01 03:37:29;;;;;;;13.30;7.65;;;;;;;19.53;100.00;97814.22;5139378;28;20409;-57
2023/07/01 03:39:55;;;;;;;28.75;10.95;;;;;;;19.66;100.00;97808.56;5139661;28;20057;-58
2023/07/01 03:42:21;;;;;;;16.80;7.22;;;;;;;19.71;100.00;97810.75;5139432;28;20077;-60
2023/07/01 03:44:47;;;;;;;12.73;6.82;;;;;;;19.84;100.00;97755.78;5139916;28;20047;-59
2023/07/01 03:47:14;;;;;;;21.67;7.95;;;;;;;20.23;100.00;97655.94;5139329;28;20050;-54
2023/07/01 03:49:39;;;;;;;22.70;7.93;;;;;;;20.59;100.00;97468.59;5139757;27;20046;-54
2023/07/01 03:52:08;;;;;;;9.07;5.03;;;;;;;21.03;100.00;97295.25;5139291;28;20058;-56
2023/07/01 03:54:34;;;;;;;27.45;9.10;;;;;;;21.71;100.00;97115.03;5139787;28;20093;-59
2023/07/01 03:57:00;;;;;;;15.45;6.03;;;;;;;21.93;100.00;96998.13;5139182;28;20138;-58
2023/07/01 03:59:26;;;;;;;9.23;5.60;;;;;;;22.24;100.00;96972.28;5139083;28;20141;-57
2023/07/01 04:01:53;;;;;;;8.85;5.32;;;;;;;22.75;100.00;96920.25;5139450;28;20058;-54
2023/07/01 04:04:19;;;;;;;7.38;4.85;;;;;;;22.63;100.00;96910.31;5139299;28;20145;-59
2023/07/01 04:06:45;;;;;;;8.20;5.28;;;;;;;22.44;100.00;96917.59;5139141;27;20142;-59
2023/07/01 04:09:12;;;;;;;13.63;7.30;;;;;;;22.90;100.00;96908.16;5139078;28;20142;-58
2023/07/01 04:11:38;;;;;;;18.17;6.70;;;;;;;23.33;100.00;96908.03;5139288;27;20043;-59
2023/07/01 04:14:04;;;;;;;15.88;7.38;;;;;;;23.41;100.00;96918.19;5138914;28;20062;-53
2023/07/01 04:16:30;;;;;;;7.10;5.88;;;;;;;23.14;100.00;96918.91;5139260;28;20047;-60
2023/07/01 04:18:56;;;;;;;15.13;6.13;;;;;;;23.02;100.00;96927.28;5138842;28;20082;-59
2023/07/01 04:21:23;;;;;;;7.80;3.80;;;;;;;22.71;100.00;96921.78;5139287;28;20054;-54
2023/07/01 04:23:49;;;;;;;14.38;4.85;;;;;;;22.69;100.00;96919.50;5138874;28;20057;-55
2023/07/01 04:26:15;;;;;;;5.80;3.70;;;;;;;22.48;100.00;96906.94;5139231;28;20321;-51
2023/07/01 04:28:41;;;;;;;17.75;8.70;;;;;;;22.44;100.00;96901.59;5138537;27;20412;-58
2023/07/01 04:31:07;;;;;;;6.72;4.47;;;;;;;22.16;100.00;96911.81;5138880;28;20094;-58
2023/07/01 04:33:33;;;;;;;16.88;8.60;;;;;;;22.13;100.00;96907.22;5138935;27;20051;-56
2023/07/01 04:35:59;;;;;;;16.20;6.13;;;;;;;22.01;100.00;96912.72;5137755;27;20408;-53
2023/07/01 04:38:25;;;;;;;9.90;4.40;;;;;;;21.96;100.00;96923.84;5138893;27;20133;-52
2023/07/01 04:40:51;;;;;;;5.20;3.72;;;;;;;22.36;100.00;96905.34;5138630;28;20416;-55
2023/07/01 04:43:17;;;;;;;6.35;4.00;;;;;;;23.06;100.00;96901.09;5138686;27;20053;-52
2023/07/01 04:45:43;;;;;;;5.53;3.90;;;;;;;23.40;100.00;96964.22;5138532;28;20047;-52
2023/07/01 04:48:09;;;;;;;12.57;5.25;;;;;;;23.43;100.00;96974.38;5138718;28;20058;-58
2023/07/01 04:50:36;;;;;;;9.30;4.05;;;;;;;23.57;100.00;97005.44;5138399;28;20047;-54
2023/07/01 04:53:02;;;;;;;6.68;3.83;;;;;;;23.41;100.00;96973.34;5138803;28;20055;-60
2023/07/01 04:55:28;;;;;;;5.78;4.05;;;;;;;23.59;100.00;96994.47;5138240;28;20497;-58
2023/07/01 04:57:54;;;;;;;6.97;3.70;;;;;;;24.25;100.00;97065.81;5138742;27;20092;-60
2023/07/01 05:00:21;;;;;;;4.25;3.20;;;;;;;24.36;100.00;97127.44;5138475;28;20126;-58
2023/07/01 05:02:47;;;;;;;6.18;3.55;;;;;;;23.90;100.00;97102.69;5138373;28;20055;-59
2023/07/01 05:05:14;;;;;;;9.85;5.20;;;;;;;25.19;100.00;97200.09;5138418;28;20047;-55
2023/07/01 05:07:40;;;;;;;6.85;5.00;;;;;;;25.84;100.00;97294.38;5138069;28;20150;-60
2023/07/01 05:10:07;;;;;;;6.05;5.00;;;;;;;26.09;100.00;97332.59;5138255;28;20059;-55
2023/07/01 05:12:34;;;;;;;6.88;4.70;;;;;;;26.63;100.00;97393.22;5137912;28;20054;-57
2023/07/01 05:15:00;;;;;;;5.95;4.57;;;;;;;26.28;100.00;97417.81;5138418;28;20349;-58
2023/07/01 05:17:25;;;;;;;7.43;5.15;;;;;;;25.50;100.00;97361.72;5137972;28;20055;-58
2023/07/01 05:19:51;;;;;;;15.57;6.85;;;;;;;25.41;100.00;97357.13;5138305;28;20147;-61
2023/07/01 05:22:17;;;;;;;6.45;3.38;;;;;;;24.90;100.00;97277.78;5137825;28;20066;-56
2023/07/01 05:24:44;;;;;;;15.55;7.82;;;;;;;24.52;100.00;97221.19;5138313;28;20047;-58
2023/07/01 05:27:10;;;;;;;6.97;3.22;;;;;;;24.12;100.00;97208.31;5137714;28;20107;-59
2023/07/01 05:29:36;;;;;;;3.40;3.08;;;;;;;23.98;100.00;97158.91;5137578;27;20059;-56
2023/07/01 05:32:03;;;;;;;6.63;3.38;;;;;;;23.55;100.00;97123.38;5138012;28;20115;-59
2023/07/01 05:34:29;;;;;;;8.90;3.90;;;;;;;23.28;100.00;97082.84;5137810;28;20051;-60
2023/07/01 05:36:56;;;;;;;5.00;3.92;;;;;;;23.08;100.00;97094.19;5137884;28;20138;-60
2023/07/01 05:39:21;;;;;;;4.75;2.80;;;;;;;22.74;100.00;97044.44;5137766;28;20051;-55
2023/07/01 05:41:47;;;;;;;9.25;5.20;;;;;;;22.47;100.00;97017.09;5137958;28;20051;-53
2023/07/01 05:44:14;;;;;;;4.60;3.15;;;;;;;22.27;100.00;96940.56;5137636;28;20051;-52
2023/07/01 05:46:40;;;;;;;5.32;3.40;;;;;;;22.09;100.00;96933.34;5137632;27;20137;-60
2023/07/01 05:49:06;;;;;;;8.75;3.30;;;;;;;21.96;100.00;96927.41;5137443;28;20149;-60
2023/07/01 05:51:33;;;;;;;6.68;4.97;;;;;;;21.93;100.00;96933.22;5137798;28;20461;-59
2023/07/01 05:53:59;;;;;;;4.88;2.80;;;;;;;21.89;100.00;96925.03;5137325;28;20111;-55
2023/07/01 05:56:25;;;;;;;3.50;3.17;;;;;;;21.89;100.00;96930.63;5137833;28;20092;-54
2023/07/01 05:58:51;;;;;;;5.25;3.40;;;;;;;21.77;100.00;96931.81;5137292;28;20207;-54
2023/07/01 06:01:17;;;;;;;4.35;3.13;;;;;;;21.76;100.00;96928.28;5137261;28;20161;-52
2023/07/01 06:03:43;;;;;;;4.38;3.17;;;;;;;21.44;100.00;96943.44;5137371;27;20046;-56
2023/07/01 06:06:09;;;;;;;4.88;2.75;;;;;;;21.61;100.00;96942.31;5137363;28;20062;-53
2023/07/01 06:08:35;;;;;;;6.75;3.25;;;;;;;21.59;100.00;96938.50;5137462;28;20051;-56
2023/07/01 06:11:01;;;;;;;7.00;3.65;;;;;;;21.45;100.00;96959.66;5137193;28;20420;-58
2023/07/01 06:13:27;;;;;;;4.35;2.85;;;;;;;21.60;100.00;96968.69;5137372;28;20051;-60
2023/07/01 06:15:53;;;;;;;3.13;2.83;;;;;;;21.68;100.00;96987.75;5137187;28;20138;-60
2023/07/01 06:18:18;;;;;;;8.63;5.05;;;;;;;21.70;100.00;97027.06;5137530;28;20058;-60
2023/07/01 06:20:45;;;;;;;4.78;3.25;;;;;;;21.59;100.00;97033.28;5136954;28;20510;-56
2023/07/01 06:23:11;;;;;;;5.68;3.78;;;;;;;21.57;100.00;96969.66;5137527;28;20108;-59
2023/07/01 06:25:37;;;;;;;5.97;3.33;;;;;;;21.30;100.00;96962.53;5136856;27;20047;-56
2023/07/01 06:28:03;;;;;;;3.97;3.58;;;;;;;21.23;100.00;96990.06;5136764;28;20059;-54
2023/07/01 06:30:29;;;;;;;7.05;4.18;;;;;;;21.17;100.00;96958.56;5136911;28;20043;-60
2023/07/01 06:32:55;;;;;;;5.70;3.50;;;;;;;21.09;100.00;96952.66;5137059;28;20135;-60
2023/07/01 06:35:21;;;;;;;6.95;3.50;;;;;;;21.14;100.00;96963.88;5137103;28;20051;-60
2023/07/01 06:37:48;;;;;;;4.35;3.35;;;;;;;21.29;100.00;96969.34;5136852;28;20093;-57
2023/07/01 06:40:14;;;;;;;8.07;3.95;;;;;;;21.34;100.00;97012.47;5137155;28;20143;-53
2023/07/01 06:42:40;;;;;;;12.27;5.40;;;;;;;21.11;100.00;97026.13;5136800;28;20336;-61
2023/07/01 06:45:07;;;;;;;9.63;5.20;;;;;;;21.28;100.00;97048.63;5137033;28;20047;-52
2023/07/01 06:47:33;;;;;;;5.47;3.80;;;;;;;21.14;100.00;97125.47;5136493;28;20043;-54
2023/07/01 06:49:59;;;;;;;6.28;3.53;;;;;;;20.60;100.00;97227.91;5137120;28;20057;-56
2023/07/01 06:52:25;;;;;;;7.32;4.50;;;;;;;20.80;100.00;97271.03;5136593;27;20369;-56
2023/07/01 06:54:51;;;;;;;12.65;3.75;;;;;;;20.53;100.00;97356.34;5136996;27;20089;-58
2023/07/01 06:57:17;;;;;;;5.57;4.10;;;;;;;20.43;100.00;97558.03;5136771;27;20146;-58
2023/07/01 06:59:43;;;;;;;9.52;4.70;;;;;;;20.29;100.00;97686.69;5139976;28;20051;-58
2023/07/01 07:02:09;;;;;;;4.60;3.85;;;;;;;20.34;100.00;97736.16;5140283;28;20195;-54
2023/07/01 07:04:35;;;;;;;4.78;4.07;;;;;;;20.22;100.00;97857.50;5140145;28;20070;-55
2023/07/01 07:07:01;;;;;;;5.32;4.30;;;;;;;20.31;100.00;97962.50;5140298;27;20086;-52
2023/07/01 07:09:27;;;;;;;5.35;3.97;;;;;;;20.36;100.00;97936.84;5139992;28;20094;-54
2023/07/01 07:11:54;;;;;;;4.15;3.83;;;;;;;20.21;100.00;97981.19;5140167;28;20486;-57
2023/07/01 07:14:20;;;;;;;4.20;3.60;;;;;;;20.33;100.00;98007.38;5139873;28;20131;-59
2023/07/01 07:16:47;;;;;;;13.70;6.03;;;;;;;20.50;100.00;98061.56;5140177;27;20518;-57
2023/07/01 07:19:13;;;;;;;8.07;4.72;;;;;;;20.44;100.00;98135.75;5139816;27;20374;-51
2023/07/01 07:21:39;;;;;;;8.20;4.82;;;;;;;20.61;100.00;98123.19;5140245;28;20133;-54
2023/07/01 07:24:06;;;;;;;9.88;4.85;;;;;;;20.67;100.00;98064.88;5139601;28;20340;-56
2023/07/01 07:26:33;;;;;;;7.85;4.35;;;;;;;20.67;100.00;98092.72;5139902;28;20430;-52
2023/07/01 07:28:59;;;;;;;7.72;3.95;;;;;;;20.83;100.00;98091.69;5139819;28;20047;-58
2023/07/01 07:31:25;;;;;;;14.65;7.03;;;;;;;20.78;100.00;98109.78;5139762;28;20218;-59
2023/07/01 07:33:51;;;;;;;9.18;4.60;;;;;;;20.90;100.00;98103.31;5139686;27;20051;-59
2023/07/01 07:36:17;;;;;;;16.27;5.88;;;;;;;20.79;100.00;98128.06;5139607;28;20051;-55
2023/07/01 07:38:43;;;;;;;8.65;5.50;;;;;;;20.74;100.00;98105.59;5139838;28;20054;-54
2023/07/01 07:41:10;;;;;;;11.43;4.38;;;;;;;20.86;100.00;98191.06;5139507;27;20047;-58
2023/07/01 07:43:36;;;;;;;16.52;7.28;;;;;;;20.82;100.00;98177.25;5139790;28;20059;-59
2023/07/01 07:46:02;;;;;;;14.48;6.03;;;;;;;20.73;100.00;98198.75;5139268;28;20159;-60
2023/07/01 07:48:28;;;;;;;6.95;4.53;;;;;;;20.79;100.00;98249.81;5139710;27;20297;-58
2023/07/01 07:50:54;;;;;;;11.93;5.13;;;;;;;20.88;100.00;98233.94;5139281;28;20068;-58
2023/07/01 07:53:21;;;;;;;5.93;3.60;;;;;;;21.10;100.00;98139.13;5139807;28;20043;-59
2023/07/01 07:55:47;;;;;;;6.18;4.07;;;;;;;21.08;100.00;98136.00;5139456;28;20110;-53
2023/07/01 07:58:14;;;;;;;6.80;4.20;;;;;;;21.34;100.00;98133.78;5139202;28;20059;-55
2023/07/01 08:00:39;;;;;;;8.15;4.00;;;;;;;21.33;100.00;98101.53;5139427;28;20054;-54
2023/07/01 08:03:06;;;;;;;7.35;4.45;;;;;;;21.44;100.00;98047.34;5139246;27;20088;-53
2023/07/01 08:05:32;;;;;;;9.50;4.70;;;;;;;21.31;100.00;98184.84;5139396;28;20047;-54
2023/07/01 08:07:58;;;;;;;8.07;3.83;;;;;;;21.17;100.00;98204.16;5139002;28;20337;-55
2023/07/01 08:10:24;;;;;;;5.72;3.50;;;;;;;21.19;100.00;98204.47;5138071;27;20504;-54
2023/07/01 08:12:50;;;;;;;5.90;3.95;;;;;;;21.18;100.00;98183.41;5139000;28;20051;-57
2023/07/01 08:15:17;;;;;;;12.55;5.43;;;;;;;21.20;100.00;98256.22;5139278;28;20196;-57
2023/07/01 08:17:43;;;;;;;8.55;4.00;;;;;;;21.17;100.00;98296.91;5138916;28;20047;-55
2023/07/01 08:20:11;;;;;;;3.78;3.42;;;;;;;21.00;100.00;98281.66;5139304;28;20061;-53
2023/07/01 08:22:37;;;;;;;6.03;3.72;;;;;;;20.94;100.00;98342.00;5138712;28;20051;-55
2023/07/01 08:25:03;;;;;;;6.65;4.13;;;;;;;20.91;100.00;98379.91;5139036;28;20051;-52
2023/07/01 08:27:29;;;;;;;11.32;4.55;;;;;;;20.66;100.00;98408.66;5139053;28;20181;-58
2023/07/01 08:29:55;;;;;;;6.65;4.15;;;;;;;20.78;100.00;98415.38;5138755;28;20131;-60
2023/07/01 08:32:21;;;;;;;7.50;3.85;;;;;;;20.82;100.00;98414.03;5139026;28;20302;-60
2023/07/01 08:34:46;;;;;;;20.73;7.70;;;;;;;20.68;100.00;98415.31;5138545;28;20487;-59
2023/07/01 08:37:13;;;;;;;4.75;4.25;;;;;;;20.77;100.00;98425.75;5138459;28;20130;-55
2023/07/01 08:39:39;;;;;;;6.47;4.30;;;;;;;20.74;100.00;98423.09;5138547;28;20065;-55
2023/07/01 08:42:09;;;;;;;9.55;4.68;;;;;;;20.72;100.00;98431.13;5138846;28;20137;-54
2023/07/01 08:44:36;;;;;;;7.55;5.20;;;;;;;20.67;100.00;98424.91;5138447;28;20154;-53
2023/07/01 08:47:04;;;;;;;6.18;4.53;;;;;;;20.82;100.00;98427.19;5138892;28;20047;-59
2023/07/01 08:49:30;;;;;;;8.63;5.93;;;;;;;20.77;100.00;98427.78;5138263;27;20142;-56
2023/07/01 08:52:04;;;;;;;7.05;5.40;;;;;;;20.82;100.00;98416.03;5138821;28;20150;-60
2023/07/01 08:54:32;;;;;;;;;;;;;;;20.77;100.00;98427.78;5139026;27;20195;-58
2023/07/01 08:56:58;;;;;;;10.65;5.13;;;;;;;20.78;100.00;98410.59;5138420;28;19975;-53
2023/07/01 08:59:24;;;;;;;5.20;4.45;;;;;;;20.76;100.00;98423.41;5138493;28;20118;-55
2023/07/01 09:01:51;;;;;;;5.07;4.53;;;;;;;20.90;100.00;98428.50;5138261;28;20141;-56
2023/07/01 09:04:17;;;;;;;4.78;4.35;;;;;;;20.96;100.00;98432.25;5138511;28;20055;-59
2023/07/01 09:06:43;;;;;;;8.00;4.95;;;;;;;20.94;100.00;98428.38;5138132;28;20188;-60
2023/07/01 09:09:08;;;;;;;5.78;4.95;;;;;;;20.87;100.00;98427.38;5138252;28;20117;-56
2023/07/01 09:11:35;;;;;;;7.68;6.07;;;;;;;20.87;100.00;98429.41;5138228;28;20062;-59
2023/07/01 09:14:02;;;;;;;13.75;5.80;;;;;;;20.68;100.00;98415.31;5138440;28;20050;-54
2023/07/01 09:16:32;;;;;;;17.42;7.65;;;;;;;20.89;100.00;98415.78;5137867;28;20047;-60
2023/07/01 09:19:06;;;;;;;10.20;5.60;;;;;;;21.15;100.00;98433.16;5138372;28;20062;-59
2023/07/01 09:21:32;;;;;;;15.57;7.03;;;;;;;21.28;100.00;98438.66;5137619;27;20138;-54
2023/07/01 09:23:59;;;;;;;14.93;7.30;;;;;;;21.26;100.00;98443.91;5138004;28;20093;-52
2023/07/01 09:26:26;;;;;;;8.32;6.10;;;;;;;21.30;100.00;98445.34;5138091;28;20047;-59
2023/07/01 09:28:54;;;;;;;16.42;6.78;;;;;;;21.25;100.00;98448.69;5137932;28;20066;-56
2023/07/01 09:31:20;;;;;;;9.07;5.10;;;;;;;21.29;100.00;98451.34;5137919;28;20051;-60
2023/07/01 09:34:00;;;;;;;6.47;5.22;;;;;;;21.14;100.00;98437.94;5137797;28;20138;-56
2023/07/01 09:36:28;;;;;;;12.05;5.60;;;;;;;21.14;100.00;98429.59;5138012;27;20143;-60
2023/07/01 09:38:55;;;;;;;9.45;5.82;;;;;;;21.19;100.00;98435.81;5137662;28;20420;-55
2023/07/01 09:41:23;;;;;;;10.50;5.97;;;;;;;21.38;100.00;98441.06;5138139;28;20141;-55
2023/07/01 09:43:50;;;;;;;12.90;5.93;;;;;;;21.50;100.00;98427.53;5137518;28;20153;-55
2023/07/01 09:46:16;;;;;;;8.02;5.03;;;;;;;21.68;100.00;98376.63;5137430;28;20496;-59
2023/07/01 09:48:51;;;;;;;6.50;4.82;;;;;;;21.76;100.00;98361.94;5137737;28;20055;-59
2023/07/01 09:51:18;;;;;;;6.28;4.97;;;;;;;21.85;100.00;98322.09;5137622;28;20051;-58
2023/07/01 09:53:44;;;;;;;10.07;5.95;;;;;;;21.85;100.00;98344.44;5137764;28;20137;-60
2023/07/01 09:56:13;;;;;;;13.25;5.78;;;;;;;21.87;100.00;98363.50;5137484;28;20337;-59
2023/07/01 09:58:39;;;;;;;13.77;6.65;;;;;;;21.93;100.00;98328.97;5137656;28;20055;-58
2023/07/01 10:01:05;;;;;;;9.45;5.03;;;;;;;21.96;100.00;98319.66;5137365;28;20051;-55
2023/07/01 10:03:33;;;;;;;8.25;5.13;;;;;;;21.91;100.00;98306.31;5137647;28;20068;-59
2023/07/01 10:05:58;;;;;;;6.80;4.55;;;;;;;21.98;100.00;98280.91;5137193;28;20057;-57
2023/07/01 10:08:24;;;;;;;15.63;5.30;;;;;;;21.83;100.00;98286.31;5137532;28;20078;-60
2023/07/01 10:10:59;;;;;;;4.70;4.07;;;;;;;22.16;100.00;98121.06;5137252;27;20146;-60
2023/07/01 10:13:28;;;;;;;13.02;5.85;;;;;;;22.29;100.00;97937.41;5137115;28;20438;-56
2023/07/01 10:15:54;;;;;;;4.90;4.00;;;;;;;22.36;100.00;97969.78;5137458;28;20047;-56
2023/07/01 10:18:22;;;;;;;6.32;5.72;;;;;;;22.50;100.00;97881.72;5137098;27;20464;-52
2023/07/01 10:20:49;;;;;;;4.63;4.20;;;;;;;22.88;100.00;97839.03;5137587;27;20077;-53
2023/07/01 10:23:15;;;;;;;14.23;6.28;;;;;;;23.34;100.00;97732.31;5137084;28;20480;-52
2023/07/01 10:25:41;;;;;;;12.98;5.65;;;;;;;23.67;100.00;97586.53;5137426;28;20054;-53
2023/07/01 10:28:08;;;;;;;4.20;3.72;;;;;;;23.90;100.00;97298.56;5137033;28;20076;-58
2023/07/01 10:31:12;;;;;;;9.38;4.45;;;;;;;23.52;100.00;97225.06;5137350;28;20051;-58
2023/07/01 10:33:57;;;;;;;6.80;5.82;;;;;;;23.96;100.00;97142.66;5138781;27;20055;-55
2023/07/01 10:36:24;;;;;;;8.05;3.92;;;;;;;24.67;100.00;97170.53;5140636;27;20051;-56
2023/07/01 10:38:50;;;;;;;5.28;4.88;;;;;;;25.48;100.00;96901.41;5140873;28;20055;-59
2023/07/01 10:41:52;;;;;;;7.10;5.78;;;;;;;26.11;100.00;96903.22;5140474;28;20066;-54
2023/07/01 10:44:25;;;;;;;4.85;4.45;;;;;;;26.71;100.00;96933.28;5141020;28;20062;-56
2023/07/01 10:47:13;;;;;;;5.27;3.43;;;;;;;26.21;100.00;96994.25;5140319;28;20058;-53
2023/07/01 10:50:05;;;;;;;4.15;3.75;;;;;;;26.93;100.00;97025.03;5140426;27;20062;-59
2023/07/01 10:52:31;;;;;;;4.43;4.03;;;;;;;26.81;100.00;97003.94;5140509;28;20408;-56
2023/07/01 10:54:59;;;;;;;5.75;4.50;;;;;;;27.27;100.00;97042.31;5140611;28;20103;-54
2023/07/01 10:57:26;;;;;;;4.00;3.70;;;;;;;27.06;100.00;97150.91;5140206;28;20051;-60
2023/07/01 11:00:42;;;;;;;3.83;3.53;;;;;;;26.89;100.00;97142.63;5140110;28;20438;-56
2023/07/01 11:03:32;;;;;;;6.28;3.90;;;;;;;26.66;100.00;97100.69;5077454;28;20052;-58
2023/07/01 11:05:59;;;;;;;6.00;4.93;;;;;;;25.84;100.00;96929.50;5135149;28;20528;-54
2023/07/01 11:08:25;;;;;;;6.63;5.00;;;;;;;25.96;100.00;96967.44;5139902;27;20051;-57
2023/07/01 11:10:51;;;;;;;4.75;4.35;;;;;;;25.95;100.00;96994.72;5140169;27;20143;-52
2023/07/01 11:13:18;;;;;;;8.43;5.28;;;;;;;25.55;100.00;96928.91;5139921;28;20054;-57
2023/07/01 11:16:04;;;;;;;5.05;4.55;;;;;;;25.24;100.00;96986.97;5140359;27;20054;-52
2023/07/01 11:18:40;;;;;;;4.43;4.10;;;;;;;24.91;100.00;96937.41;5139829;28;20088;-55
2023/07/01 11:21:08;;;;;;;7.30;6.05;;;;;;;25.42;100.00;96982.78;5140005;28;20055;-56
2023/07/01 11:23:33;;;;;;;5.07;4.60;;;;;;;25.53;100.00;96948.31;5140061;27;20107;-59